Time;durP1;ratioP1;P1;durP2;ratioP2;P2;SDS_P1;SDS_P2;PMS_P1;PMS_P2;Temp;Humidity;BMP_temperature;BMP_pressure;BME280_temperature;BME280_humidity;BME280_pressure;Samples;Min_cycle;Max_cycle;Signal;HPM_P1;HPM_P2
2023/10/28 00:01:26;;;;;;;1.10;1.10;;;;;;;14.44;nan;41739.84;5012498;28;20184;-71
2023/10/28 00:03:52;;;;;;;1.73;1.17;;;;;;;14.68;nan;42152.47;5012160;28;20263;-72
2023/10/28 00:06:17;;;;;;;2.08;1.65;;;;;;;14.43;nan;43492.00;5012263;28;20277;-71
2023/10/28 00:08:43;;;;;;;1.83;1.65;;;;;;;14.47;nan;44328.97;5011984;28;20192;-72
2023/10/28 00:11:10;;;;;;;2.22;1.77;;;;;;;14.50;nan;44106.88;5015236;28;20208;-72
2023/10/28 00:13:35;;;;;;;1.77;1.67;;;;;;;14.28;nan;41979.88;5015383;28;20156;-71
2023/10/28 00:16:00;;;;;;;2.10;1.90;;;;;;;14.45;nan;40521.56;5014844;28;20187;-72
2023/10/28 00:18:26;;;;;;;2.20;1.85;;;;;;;14.60;nan;36628.88;5015551;28;20636;-72
2023/10/28 00:20:51;;;;;;;1.65;1.55;;;;;;;14.62;nan;34344.34;5016293;28;20309;-70
2023/10/28 00:23:17;;;;;;;1.38;1.27;;;;;;;14.45;nan;32701.66;5015860;28;20215;-72
2023/10/28 00:25:42;;;;;;;1.45;1.35;;;;;;;14.56;nan;32056.38;5015579;28;20745;-72
2023/10/28 00:28:08;;;;;;;1.13;1.08;;;;;;;14.43;nan;31069.72;5015041;28;20200;-71
2023/10/28 00:30:33;;;;;;;1.30;1.23;;;;;;;14.21;nan;19018.38;5015758;28;20600;-71
2023/10/28 00:32:59;;;;;;;1.17;1.17;;;;;;;14.42;nan;18377.75;5015142;28;20160;-72
2023/10/28 00:35:26;;;;;;;1.27;1.17;;;;;;;14.29;nan;18697.25;4995630;28;20247;-71
2023/10/28 00:37:51;;;;;;;3.42;1.60;;;;;;;14.31;nan;18373.38;4996062;28;20582;-72
2023/10/28 00:40:17;;;;;;;1.00;1.00;;;;;;;14.33;nan;17399.91;4995890;28;20175;-70
2023/10/28 00:42:45;;;;;;;1.20;1.10;;;;;;;14.34;nan;16751.25;4995476;28;20187;-71
2023/10/28 00:45:11;;;;;;;1.50;1.40;;;;;;;14.37;nan;16427.84;4995234;28;20575;-72
2023/10/28 00:47:44;;;;;;;1.90;1.40;;;;;;;14.51;nan;16757.72;4995282;28;20180;-72
2023/10/28 00:50:12;;;;;;;2.55;1.75;;;;;;;14.52;nan;16433.44;4995434;28;20208;-72
2023/10/28 00:52:41;;;;;;;1.40;1.30;;;;;;;14.52;nan;15784.19;4995441;28;20628;-69
2023/10/28 00:55:10;;;;;;;1.15;1.15;;;;;;;14.43;nan;16429.97;4994944;28;20267;-70
2023/10/28 00:57:38;;;;;;;1.08;1.08;;;;;;;14.30;nan;13829.69;4995098;28;20169;-70
2023/10/28 01:00:06;;;;;;;1.00;1.00;;;;;;;14.41;nan;12212.16;4995108;28;20189;-72
2023/10/28 01:02:34;;;;;;;2.35;1.50;;;;;;;14.21;nan;11233.75;4995649;28;20284;-70
2023/10/28 01:04:59;;;;;;;1.42;1.30;;;;;;;14.40;nan;9943.41;4995469;28;20180;-72
2023/10/28 01:07:25;;;;;;;1.00;1.00;;;;;;;14.45;nan;8973.00;4995523;28;20641;-71
2023/10/28 01:09:51;;;;;;;1.63;1.52;;;;;;;14.34;nan;8646.28;4994727;28;20288;-70
2023/10/28 01:12:16;;;;;;;1.80;1.48;;;;;;;14.48;nan;9297.84;4995052;28;20638;-71
2023/10/28 01:14:42;;;;;;;1.70;1.60;;;;;;;14.46;nan;8649.38;4994041;28;20192;-70
2023/10/28 01:17:08;;;;;;;1.27;1.23;;;;;;;14.47;nan;9297.44;4995037;28;20199;-71
2023/10/28 01:19:34;;;;;;;3.67;2.03;;;;;;;14.28;nan;9292.31;4995062;28;20225;-72
2023/10/28 01:22:00;;;;;;;1.63;1.52;;;;;;;14.35;nan;8970.34;4994778;28;20180;-73
2023/10/28 01:24:28;;;;;;;1.40;1.33;;;;;;;14.48;nan;9297.69;4994587;28;20173;-72
2023/10/28 01:26:53;;;;;;;1.50;1.40;;;;;;;14.27;nan;9292.06;4994770;28;20168;-72
2023/10/28 01:29:19;;;;;;;2.42;1.92;;;;;;;14.50;nan;8974.31;4994140;28;20258;-71
2023/10/28 01:31:44;;;;;;;2.90;1.42;;;;;;;14.47;nan;10269.50;4994817;28;20263;-72
2023/10/28 01:34:10;;;;;;;2.28;1.73;;;;;;;14.40;nan;10267.38;4994627;28;20581;-72
2023/10/28 01:36:35;;;;;;;1.80;1.70;;;;;;;14.13;nan;7670.09;4994120;28;20177;-72
2023/10/28 01:39:00;;;;;;;1.70;1.58;;;;;;;14.21;nan;3467.50;4993823;28;20645;-72
2023/10/28 01:41:26;;;;;;;8.43;2.58;;;;;;;14.10;nan;2496.34;4994753;28;20165;-71
2023/10/28 01:43:52;;;;;;;1.38;1.27;;;;;;;14.23;nan;2175.13;4994286;28;20177;-71
2023/10/28 01:46:17;;;;;;;1.48;1.38;;;;;;;14.26;nan;3145.06;4994314;28;20188;-72
2023/10/28 01:48:45;;;;;;;1.30;1.20;;;;;;;14.31;nan;3469.16;4994448;28;20200;-71
2023/10/28 01:51:10;;;;;;;2.05;1.45;;;;;;;14.19;nan;3467.06;4994566;28;20644;-71
2023/10/28 01:53:36;;;;;;;1.48;1.30;;;;;;;14.38;nan;3793.69;4994134;28;20169;-70
2023/10/28 01:56:01;;;;;;;2.60;1.85;;;;;;;14.51;nan;7355.41;4994768;28;20173;-69
2023/10/28 01:58:28;;;;;;;1.52;1.35;;;;;;;14.29;nan;6702.97;4994128;28;20276;-70
2023/10/28 02:00:54;;;;;;;2.55;1.95;;;;;;;14.20;nan;6053.94;4994249;28;20683;-69
2023/10/28 02:03:20;;;;;;;1.48;1.38;;;;;;;14.40;nan;5734.69;4994288;28;20268;-70
2023/10/28 02:05:46;;;;;;;1.45;1.35;;;;;;;14.18;nan;3143.81;4994207;28;20629;-70
2023/10/28 02:08:12;;;;;;;1.65;1.55;;;;;;;13.97;nan;879.66;4994088;28;20564;-70
2023/10/28 02:10:38;;;;;;;1.40;1.30;;;;;;;14.09;nan;1204.19;4993982;28;20168;-71
2023/10/28 02:13:04;;;;;;;2.92;1.42;;;;;;;14.14;nan;1527.84;4993911;28;20184;-70
2023/10/28 02:15:31;;;;;;;1.13;1.08;;;;;;;14.18;nan;1851.31;4993796;28;20173;-70
2023/10/28 02:17:57;;;;;;;2.58;2.03;;;;;;;14.07;nan;1203.94;4993984;28;20585;-69
2023/10/28 02:20:22;;;;;;;1.30;1.20;;;;;;;14.05;nan;880.75;4993247;28;20220;-70
2023/10/28 02:22:49;;;;;;;3.08;1.98;;;;;;;14.09;nan;881.28;4993856;28;20551;-71
2023/10/28 02:25:14;;;;;;;1.45;1.35;;;;;;;14.07;nan;-87.50;4994078;28;20176;-70
2023/10/28 02:27:40;;;;;;;1.52;1.13;;;;;;;13.79;nan;-90.75;4993750;28;20180;-71
2023/10/28 02:30:07;;;;;;;2.53;2.05;;;;;;;13.93;nan;-411.81;4992255;28;20211;-71
2023/10/28 02:32:33;;;;;;;1.65;1.08;;;;;;;13.83;nan;-735.53;4990859;28;20263;-71
2023/10/28 02:34:59;;;;;;;1.50;1.40;;;;;;;13.82;nan;-413.00;4992128;28;20319;-70
2023/10/28 02:37:26;;;;;;;2.10;1.40;;;;;;;13.64;nan;875.44;4991436;28;20268;-70
2023/10/28 02:39:53;;;;;;;1.40;1.30;;;;;;;13.61;nan;552.47;5005357;28;20436;-71
2023/10/28 02:42:23;;;;;;;1.48;1.38;;;;;;;13.52;nan;1519.22;4997027;28;20637;-71
2023/10/28 02:44:50;;;;;;;1.23;1.20;;;;;;;13.63;nan;552.66;4993311;28;20191;-72
2023/10/28 02:47:16;;;;;;;1.80;1.70;;;;;;;13.43;nan;227.75;4987953;28;20644;-72
2023/10/28 02:49:41;;;;;;;1.30;1.20;;;;;;;13.55;nan;-93.38;4990312;28;20232;-72
2023/10/28 02:52:07;;;;;;;1.50;1.40;;;;;;;13.56;nan;-738.31;4991428;28;20650;-71
2023/10/28 02:54:35;;;;;;;2.08;1.83;;;;;;;13.55;nan;-1060.84;4990688;28;20180;-71
2023/10/28 02:57:00;;;;;;;2.35;1.60;;;;;;;13.35;nan;-1385.06;5003930;28;20220;-70
2023/10/28 02:59:27;;;;;;;1.23;1.20;;;;;;;13.16;nan;-2031.13;4990884;28;20319;-71
2023/10/28 03:01:53;;;;;;;1.30;1.20;;;;;;;13.35;nan;-2996.16;4991315;28;20274;-71
2023/10/28 03:04:19;;;;;;;1.50;1.40;;;;;;;13.36;nan;-3640.31;4991082;28;20189;-71
2023/10/28 03:06:45;;;;;;;2.58;1.65;;;;;;;13.43;nan;-3639.88;4990868;28;20191;-70
2023/10/28 03:09:11;;;;;;;1.40;1.30;;;;;;;13.41;nan;-4284.16;5006263;28;20703;-72
2023/10/28 03:11:37;;;;;;;4.20;1.58;;;;;;;13.66;nan;-4605.19;4988382;28;20187;-71
2023/10/28 03:14:04;;;;;;;1.05;1.05;;;;;;;13.65;nan;-3638.69;4989432;28;20188;-72
2023/10/28 03:16:29;;;;;;;1.65;1.30;;;;;;;13.60;nan;-2027.53;4988842;28;20590;-71
2023/10/28 03:18:55;;;;;;;5.13;3.08;;;;;;;12.84;nan;-4930.06;4989578;28;20225;-71
2023/10/28 03:21:20;;;;;;;1.63;1.38;;;;;;;12.93;nan;-6859.53;4989419;28;20658;-71
2023/10/28 03:23:46;;;;;;;1.33;1.27;;;;;;;13.33;nan;-5894.06;4989133;28;20212;-72
2023/10/28 03:26:12;;;;;;;1.58;1.48;;;;;;;13.09;nan;-6859.50;4990127;28;20188;-71
2023/10/28 03:28:37;;;;;;;2.30;1.40;;;;;;;13.16;nan;-6216.09;4992216;28;20255;-71
2023/10/28 03:31:11;;;;;;;1.40;1.30;;;;;;;12.98;nan;-6216.34;4991116;28;20216;-72
2023/10/28 03:33:40;;;;;;;1.83;1.73;;;;;;;12.98;nan;-5573.03;4990364;28;20627;-71
2023/10/28 03:36:06;;;;;;;2.40;1.95;;;;;;;13.17;nan;-5894.34;4989568;28;20177;-71
2023/10/28 03:38:35;;;;;;;1.85;1.73;;;;;;;12.84;nan;-5251.72;4991406;28;20192;-70
2023/10/28 03:41:11;;;;;;;1.20;1.10;;;;;;;12.91;nan;-4608.13;4990463;28;20243;-70
2023/10/28 03:43:37;;;;;;;2.10;1.70;;;;;;;12.96;nan;-4286.16;4991489;28;20657;-71
2023/10/28 03:46:03;;;;;;;1.75;1.65;;;;;;;12.70;nan;-5573.66;4993711;28;20187;-72
2023/10/28 03:48:30;;;;;;;1.58;1.25;;;;;;;12.71;nan;-5252.09;4993481;28;20184;-70
2023/10/28 03:51:00;;;;;;;1.10;1.10;;;;;;;12.70;nan;-6216.69;4993890;28;20184;-71
2023/10/28 03:53:26;;;;;;;1.52;1.42;;;;;;;12.85;nan;-7181.03;4994772;28;20193;-70
2023/10/28 03:55:52;;;;;;;1.52;1.27;;;;;;;12.91;nan;-6538.00;4994085;28;20184;-71
2023/10/28 03:58:17;;;;;;;1.10;1.10;;;;;;;12.81;nan;-6859.56;4995155;28;20177;-70
2023/10/28 04:00:43;;;;;;;1.67;1.33;;;;;;;12.84;nan;-7181.03;4993757;28;20284;-71
2023/10/28 04:03:08;;;;;;;1.55;1.45;;;;;;;12.74;nan;-5895.13;4994790;28;20587;-71
2023/10/28 04:05:34;;;;;;;1.33;1.25;;;;;;;12.84;nan;-6538.06;4995102;28;20177;-71
2023/10/28 04:07:59;;;;;;;2.28;2.08;;;;;;;12.60;nan;-7180.94;4994280;28;20188;-69
2023/10/28 04:10:25;;;;;;;1.05;1.05;;;;;;;12.74;nan;-7823.72;4993485;28;20201;-69
2023/10/28 04:12:51;;;;;;;1.52;1.38;;;;;;;12.74;nan;-7502.38;4994091;28;20580;-71
2023/10/28 04:15:18;;;;;;;1.20;1.10;;;;;;;12.76;nan;-7502.41;4994161;28;20239;-71
2023/10/28 04:17:44;;;;;;;1.70;1.58;;;;;;;12.72;nan;-7502.38;4993983;28;20185;-71
2023/10/28 04:20:10;;;;;;;1.65;1.55;;;;;;;12.68;nan;-7823.66;4994230;28;20232;-72
2023/10/28 04:22:37;;;;;;;1.70;1.50;;;;;;;12.72;nan;-6859.59;4994107;28;20251;-72
2023/10/28 04:25:03;;;;;;;1.48;1.38;;;;;;;12.54;nan;-8787.00;4994799;28;20193;-72
2023/10/28 04:27:29;;;;;;;2.38;1.75;;;;;;;12.66;nan;-9750.84;4994056;28;20632;-71
2023/10/28 04:29:57;;;;;;;1.52;1.42;;;;;;;12.47;nan;-10070.97;4994398;28;20259;-72
2023/10/28 04:32:24;;;;;;;1.70;1.60;;;;;;;12.61;nan;-10392.72;4991441;28;20628;-70
2023/10/28 04:34:53;;;;;;;2.22;1.90;;;;;;;12.44;nan;-10070.81;4994537;28;20259;-71
2023/10/28 04:37:19;;;;;;;2.15;1.73;;;;;;;12.50;nan;-11033.94;4994448;28;20181;-70
2023/10/28 04:39:44;;;;;;;2.67;2.45;;;;;;;12.35;nan;-11674.59;4993430;28;20302;-70
2023/10/28 04:42:09;;;;;;;1.45;1.35;;;;;;;12.63;nan;-12639.22;4994608;28;20542;-72
2023/10/28 04:44:35;;;;;;;1.45;1.35;;;;;;;12.44;nan;-12316.75;4993579;28;20177;-69
2023/10/28 04:47:01;;;;;;;1.80;1.50;;;;;;;12.56;nan;-13280.06;4993958;28;20177;-71
2023/10/28 04:49:28;;;;;;;1.58;1.48;;;;;;;12.62;nan;-13922.13;4993878;28;20287;-71
2023/10/28 04:51:54;;;;;;;0.93;0.93;;;;;;;12.43;nan;-15202.03;4994610;28;20196;-70
2023/10/28 04:54:20;;;;;;;1.48;1.38;;;;;;;12.35;nan;-16162.09;4994177;28;20181;-71
2023/10/28 04:56:45;;;;;;;1.52;1.42;;;;;;;12.42;nan;-16163.09;4992666;28;20199;-71
2023/10/28 04:59:10;;;;;;;1.58;1.48;;;;;;;12.48;nan;-16804.59;4993963;28;20195;-71
2023/10/28 05:01:36;;;;;;;1.30;1.20;;;;;;;12.71;nan;-16808.41;4993640;28;20199;-71
2023/10/28 05:04:02;;;;;;;2.33;2.13;;;;;;;12.56;nan;-17126.25;4993641;28;20191;-71
2023/10/28 05:06:27;;;;;;;2.20;2.00;;;;;;;12.69;nan;-17128.41;4993427;28;20187;-71
2023/10/28 05:08:53;;;;;;;1.17;1.17;;;;;;;12.93;nan;-17132.38;4993388;28;20204;-71
2023/10/28 05:11:19;;;;;;;1.55;1.45;;;;;;;12.84;nan;-16810.47;4993311;28;20184;-71
2023/10/28 05:13:44;;;;;;;1.48;1.38;;;;;;;12.84;nan;-16489.88;4994041;28;20574;-70
2023/10/28 05:16:11;;;;;;;1.42;1.30;;;;;;;12.83;nan;-16489.72;4994078;28;20195;-70
2023/10/28 05:18:36;;;;;;;2.17;1.70;;;;;;;13.03;nan;-16172.13;5008284;28;20207;-71
2023/10/28 05:21:01;;;;;;;1.77;1.67;;;;;;;13.05;nan;-15531.00;4993485;28;20192;-71
2023/10/28 05:23:27;;;;;;;2.15;1.88;;;;;;;13.37;nan;-15535.47;4993157;28;20700;-71
2023/10/28 05:25:53;;;;;;;1.70;1.60;;;;;;;13.39;nan;-15214.75;4994307;28;20267;-71
2023/10/28 05:28:19;;;;;;;2.33;2.13;;;;;;;13.40;nan;-14572.91;4993116;28;20663;-70
2023/10/28 05:30:48;;;;;;;4.03;1.88;;;;;;;13.45;nan;-13289.13;4992154;28;20185;-71
2023/10/28 05:33:14;;;;;;;1.20;1.10;;;;;;;13.71;nan;-12970.47;4993439;28;20191;-70
2023/10/28 05:35:39;;;;;;;1.88;1.40;;;;;;;13.75;nan;-12649.47;4999310;28;20180;-72
2023/10/28 05:38:05;;;;;;;1.50;1.40;;;;;;;13.89;nan;-12329.28;4993444;28;20184;-72
2023/10/28 05:40:31;;;;;;;1.33;1.23;;;;;;;13.77;nan;-11042.25;4992974;28;20181;-71
2023/10/28 05:43:00;;;;;;;2.20;1.67;;;;;;;13.84;nan;-10399.44;4992242;28;21381;-72
2023/10/28 05:45:25;;;;;;;1.55;1.45;;;;;;;14.12;nan;-10079.19;4994068;28;20187;-71
2023/10/28 05:47:52;;;;;;;1.10;1.10;;;;;;;14.26;nan;-9435.97;4993235;28;20275;-70
2023/10/28 05:50:20;;;;;;;1.92;1.60;;;;;;;14.16;nan;-5570.25;5000541;28;20232;-70
2023/10/28 05:52:46;;;;;;;8.13;3.38;;;;;;;14.38;nan;-2989.41;4996080;28;20193;-70
2023/10/28 05:55:12;;;;;;;2.38;2.17;;;;;;;14.26;nan;-2344.88;4998387;28;20188;-70
2023/10/28 05:57:39;;;;;;;1.30;1.20;;;;;;;14.53;nan;-728.38;4993023;28;20184;-72
2023/10/28 06:00:09;;;;;;;2.92;2.10;;;;;;;14.50;nan;240.31;5000527;28;20215;-72
2023/10/28 06:02:36;;;;;;;1.52;1.42;;;;;;;14.88;nan;1538.06;4991852;28;20183;-72
2023/10/28 06:05:03;;;;;;;3.17;2.70;;;;;;;14.79;nan;5419.16;4992655;28;20180;-72
2023/10/28 06:07:37;;;;;;;1.48;1.38;;;;;;;14.64;nan;8006.19;4990425;28;20626;-71
2023/10/28 06:10:07;;;;;;;1.63;1.48;;;;;;;14.87;nan;8659.84;4977955;28;20199;-72
2023/10/28 06:12:33;;;;;;;1.63;1.52;;;;;;;15.20;nan;8992.50;4992680;28;20199;-71
2023/10/28 06:14:58;;;;;;;1.65;1.55;;;;;;;15.25;nan;10291.28;4993481;28;20263;-73
2023/10/28 06:17:24;;;;;;;2.90;2.03;;;;;;;15.59;nan;15824.03;4992988;28;20291;-70
2023/10/28 06:19:50;;;;;;;1.73;1.63;;;;;;;15.65;nan;18754.31;4991749;28;20225;-72
2023/10/28 06:22:15;;;;;;;2.17;1.85;;;;;;;15.66;nan;20708.19;4991574;28;20253;-71
2023/10/28 06:24:41;;;;;;;2.30;2.10;;;;;;;15.91;nan;25284.06;4991312;28;20227;-71
2023/10/28 06:27:08;;;;;;;1.48;1.38;;;;;;;16.07;nan;28557.03;4991389;28;20288;-71
2023/10/28 06:29:34;;;;;;;2.40;1.70;;;;;;;16.09;nan;30845.97;4990711;28;20197;-71
2023/10/28 06:31:59;;;;;;;2.03;1.60;;;;;;;16.05;nan;33459.47;4991611;28;20184;-72
2023/10/28 06:34:27;;;;;;;1.98;1.77;;;;;;;16.16;nan;37067.81;4991388;28;20220;-72
2023/10/28 06:36:54;;;;;;;2.45;2.25;;;;;;;16.28;nan;37193.91;4990811;28;20217;-72
2023/10/28 06:39:20;;;;;;;1.50;1.40;;;;;;;16.42;nan;35775.91;4992046;28;20247;-73
2023/10/28 06:41:45;;;;;;;2.55;1.98;;;;;;;16.60;nan;38733.25;4989099;28;20276;-73
2023/10/28 06:44:11;;;;;;;2.67;2.28;;;;;;;16.56;nan;44289.22;4990420;28;20260;-73
2023/10/28 06:46:39;;;;;;;2.72;1.40;;;;;;;16.70;nan;43885.31;4990548;28;20508;-72
2023/10/28 06:49:08;;;;;;;3.00;2.67;;;;;;;17.05;nan;44340.19;4991843;28;20295;-72
2023/10/28 06:51:34;;;;;;;1.98;1.77;;;;;;;17.00;nan;47100.16;4992513;28;20187;-72
2023/10/28 06:53:59;;;;;;;3.65;1.52;;;;;;;17.31;nan;48074.22;4992955;28;20263;-72
2023/10/28 06:56:27;;;;;;;2.13;1.88;;;;;;;17.40;nan;50274.38;4990548;28;20176;-71
2023/10/28 06:58:53;;;;;;;2.40;1.45;;;;;;;17.56;nan;53105.41;4992144;28;20192;-76
2023/10/28 07:01:21;;;;;;;1.73;1.45;;;;;;;17.30;nan;52152.41;5006307;28;20582;-71
2023/10/28 07:03:47;;;;;;;2.28;1.83;;;;;;;17.57;nan;52108.78;4991127;28;20688;-72
2023/10/28 07:06:17;;;;;;;2.85;1.45;;;;;;;17.64;nan;52324.81;4992140;28;20184;-70
2023/10/28 07:08:46;;;;;;;2.50;1.65;;;;;;;17.73;nan;53057.38;4990535;28;20243;-71
2023/10/28 07:11:11;;;;;;;1.45;1.35;;;;;;;18.13;nan;54278.06;4990233;28;20581;-70
2023/10/28 07:13:38;;;;;;;1.92;1.25;;;;;;;18.12;nan;55404.78;4990285;28;20660;-72
2023/10/28 07:16:04;;;;;;;2.95;1.73;;;;;;;18.26;nan;55984.13;4990853;28;20185;-70
2023/10/28 07:18:30;;;;;;;2.00;1.17;;;;;;;18.44;nan;56261.66;4989728;28;20180;-71
2023/10/28 07:20:56;;;;;;;2.40;1.60;;;;;;;18.62;nan;56770.38;4990389;28;20232;-71
2023/10/28 07:23:21;;;;;;;1.92;1.67;;;;;;;18.98;nan;57509.63;4991069;28;20563;-72
2023/10/28 07:25:47;;;;;;;2.90;2.15;;;;;;;19.15;nan;57813.81;5005198;28;20568;-71
2023/10/28 07:28:14;;;;;;;2.67;2.25;;;;;;;19.26;nan;58415.63;4992311;28;20226;-71
2023/10/28 07:30:50;;;;;;;3.63;1.67;;;;;;;19.26;nan;58847.88;4992080;28;20204;-72
2023/10/28 07:33:16;;;;;;;2.45;1.23;;;;;;;19.25;nan;58798.13;5007334;28;20195;-72
2023/10/28 07:35:50;;;;;;;1.83;1.60;;;;;;;19.33;nan;58949.19;4992267;28;20267;-72
2023/10/28 07:38:16;;;;;;;1.30;1.20;;;;;;;19.53;nan;59210.75;4992392;28;20258;-72
2023/10/28 07:40:42;;;;;;;2.30;1.65;;;;;;;19.65;nan;59438.91;4992393;28;20181;-71
2023/10/28 07:43:10;;;;;;;3.25;1.80;;;;;;;19.85;nan;59492.47;4992505;28;20179;-71
2023/10/28 07:45:36;;;;;;;2.10;1.52;;;;;;;19.99;nan;59631.72;4992134;28;20185;-72
2023/10/28 07:48:01;;;;;;;2.85;1.65;;;;;;;20.27;nan;59978.91;4991804;28;20180;-71
2023/10/28 07:50:26;;;;;;;3.05;1.77;;;;;;;20.32;nan;60144.16;4991631;28;20196;-72
2023/10/28 07:52:52;;;;;;;4.85;2.38;;;;;;;20.37;nan;60243.66;4991912;28;20694;-73
2023/10/28 07:55:17;;;;;;;2.25;1.40;;;;;;;20.33;nan;60230.88;4992003;28;20177;-73
2023/10/28 07:57:46;;;;;;;2.67;1.88;;;;;;;20.63;nan;60417.28;4992220;28;20667;-72
2023/10/28 08:00:12;;;;;;;6.28;2.25;;;;;;;20.72;nan;60446.03;4992018;28;20632;-70
2023/10/28 08:02:37;;;;;;;2.03;1.67;;;;;;;20.87;nan;60518.72;4990777;28;20315;-71
2023/10/28 08:05:04;;;;;;;2.45;2.20;;;;;;;21.06;nan;60662.53;4991835;28;20203;-71
2023/10/28 08:07:29;;;;;;;2.33;1.60;;;;;;;21.10;nan;60716.34;4991988;28;20180;-70
2023/10/28 08:09:56;;;;;;;2.60;1.63;;;;;;;21.28;nan;60860.66;4990475;28;20204;-70
2023/10/28 08:12:25;;;;;;;3.30;2.22;;;;;;;21.32;nan;60945.69;4992052;28;20659;-70
2023/10/28 08:14:50;;;;;;;4.88;2.83;;;;;;;21.49;nan;60956.97;4991881;28;20169;-71
2023/10/28 08:17:16;;;;;;;2.50;1.85;;;;;;;21.73;nan;60980.72;4991547;28;20179;-71
2023/10/28 08:19:41;;;;;;;2.55;2.20;;;;;;;21.70;nan;61026.16;4991824;28;20695;-68
2023/10/28 08:22:07;;;;;;;4.30;2.55;;;;;;;21.92;nan;61836.50;4991680;28;20175;-68
2023/10/28 08:24:32;;;;;;;1.73;1.63;;;;;;;21.80;nan;61880.69;4991916;28;20184;-69
2023/10/28 08:26:58;;;;;;;1.45;1.35;;;;;;;21.68;nan;61885.25;4992063;28;20181;-69
2023/10/28 08:29:24;;;;;;;3.45;1.65;;;;;;;21.80;nan;61911.31;4991580;28;20196;-71
2023/10/28 08:31:50;;;;;;;1.60;1.50;;;;;;;21.84;nan;61835.22;4992902;28;20632;-71
2023/10/28 08:34:16;;;;;;;4.28;2.55;;;;;;;21.92;nan;61935.38;4995544;28;20199;-70
2023/10/28 08:36:41;;;;;;;1.85;1.73;;;;;;;22.15;nan;61961.00;4995338;28;20197;-72
2023/10/28 08:39:07;;;;;;;2.13;1.67;;;;;;;22.50;nan;62000.25;5010214;28;20223;-70
2023/10/28 08:41:34;;;;;;;2.42;1.67;;;;;;;22.45;nan;62026.94;4994689;28;20632;-63
2023/10/28 08:44:04;;;;;;;1.65;1.38;;;;;;;22.61;nan;62072.69;4994406;28;20617;-63
2023/10/28 08:46:31;;;;;;;1.83;1.40;;;;;;;22.65;nan;62012.69;4995397;28;20215;-63
2023/10/28 08:48:58;;;;;;;1.88;1.45;;;;;;;22.44;nan;62043.47;4994975;28;20192;-63
2023/10/28 08:51:24;;;;;;;2.47;1.60;;;;;;;22.63;nan;62028.63;4994714;28;20184;-63
2023/10/28 08:53:54;;;;;;;1.58;1.45;;;;;;;22.84;nan;62065.56;4994979;28;20628;-63
2023/10/28 08:56:23;;;;;;;6.03;1.88;;;;;;;23.09;nan;62145.06;4994232;28;20203;-63
2023/10/28 08:58:50;;;;;;;2.47;1.65;;;;;;;23.21;nan;62180.16;4994703;28;20713;-63
2023/10/28 09:01:17;;;;;;;3.35;1.90;;;;;;;23.37;nan;62174.38;4994395;28;20177;-63
2023/10/28 09:03:44;;;;;;;3.33;1.60;;;;;;;23.63;nan;62227.50;4994222;28;20600;-63
2023/10/28 09:06:09;;;;;;;3.75;2.40;;;;;;;23.89;nan;62256.06;4994377;28;20187;-62
2023/10/28 09:08:34;;;;;;;1.88;1.50;;;;;;;24.05;nan;62258.63;4994189;28;20553;-62
2023/10/28 09:11:00;;;;;;;2.78;2.05;;;;;;;24.27;nan;62267.53;4993920;28;20593;-62
2023/10/28 09:13:26;;;;;;;2.67;1.67;;;;;;;24.32;nan;62289.50;4994024;28;20176;-62
2023/10/28 09:15:52;;;;;;;1.88;1.45;;;;;;;23.96;nan;62355.41;4994301;28;20161;-62
2023/10/28 09:18:17;;;;;;;1.70;1.58;;;;;;;24.05;nan;62389.19;4993814;28;20255;-62
2023/10/28 09:20:43;;;;;;;1.60;1.50;;;;;;;23.79;nan;62273.91;4994292;28;20224;-62
2023/10/28 09:23:08;;;;;;;2.65;1.85;;;;;;;23.70;nan;62263.66;4994328;28;20169;-62
2023/10/28 09:25:36;;;;;;;4.47;2.10;;;;;;;23.68;nan;62227.44;4993691;28;20196;-63
2023/10/28 09:28:07;;;;;;;3.65;2.20;;;;;;;23.81;nan;62297.09;4993241;28;20188;-63
2023/10/28 09:30:46;;;;;;;2.55;1.88;;;;;;;23.76;nan;62229.31;4993521;28;20319;-63
2023/10/28 09:33:13;;;;;;;1.48;1.38;;;;;;;23.91;nan;62224.97;4993933;28;20255;-63
2023/10/28 09:35:41;;;;;;;2.47;1.75;;;;;;;24.29;nan;62283.44;4993491;28;20176;-63
2023/10/28 09:38:08;;;;;;;2.00;1.73;;;;;;;24.32;nan;62354.78;4993947;28;20185;-63
2023/10/28 09:40:34;;;;;;;1.45;1.20;;;;;;;24.14;nan;62268.91;4993841;28;20224;-63
2023/10/28 09:43:02;;;;;;;1.63;1.33;;;;;;;24.40;nan;62332.00;4992339;28;20276;-63
2023/10/28 09:45:28;;;;;;;2.17;1.20;;;;;;;24.31;nan;62326.94;4993798;28;20173;-63
2023/10/28 09:48:01;;;;;;;1.55;1.45;;;;;;;24.61;nan;62353.94;4994024;28;20173;-63
2023/10/28 09:50:29;;;;;;;2.38;2.00;;;;;;;24.97;nan;62412.28;4993620;28;20204;-63
2023/10/28 09:52:57;;;;;;;1.90;1.80;;;;;;;25.20;nan;62534.78;4993736;28;20204;-63
2023/10/28 09:55:35;;;;;;;2.20;1.27;;;;;;;25.42;nan;62458.50;4993883;28;20157;-63
2023/10/28 09:58:19;;;;;;;3.67;2.20;;;;;;;25.56;nan;62494.91;4993801;28;20172;-63
2023/10/28 10:00:48;;;;;;;7.38;1.88;;;;;;;25.11;nan;62462.25;4993612;28;20657;-63
2023/10/28 10:03:34;;;;;;;1.80;1.40;;;;;;;25.34;nan;62478.09;4993195;28;20211;-63
2023/10/28 10:06:00;;;;;;;1.55;1.45;;;;;;;25.28;nan;62479.13;4993696;28;20164;-63
2023/10/28 10:08:26;;;;;;;1.83;1.48;;;;;;;24.96;nan;62439.91;4993691;28;20184;-63
2023/10/28 10:10:55;;;;;;;2.33;1.75;;;;;;;24.62;nan;62479.97;4993253;28;20220;-62
2023/10/28 10:13:21;;;;;;;1.45;1.35;;;;;;;24.50;nan;62476.69;4993239;28;20181;-63
2023/10/28 10:16:03;;;;;;;3.65;1.83;;;;;;;24.73;nan;62374.94;4993229;28;20185;-63
2023/10/28 10:18:49;;;;;;;2.85;2.08;;;;;;;24.95;nan;62394.28;4993276;28;20251;-63
2023/10/28 10:21:18;;;;;;;1.85;1.38;;;;;;;25.04;nan;62465.31;4993169;28;20658;-62
2023/10/28 10:23:50;;;;;;;1.35;1.25;;;;;;;25.01;nan;62429.94;4992953;28;20169;-63
2023/10/28 10:26:27;;;;;;;1.50;1.40;;;;;;;25.11;nan;62454.41;4993021;28;20185;-63
2023/10/28 10:28:56;;;;;;;6.20;1.67;;;;;;;25.15;nan;62456.41;4993102;28;20196;-63
2023/10/28 10:31:39;;;;;;;1.17;1.08;;;;;;;25.61;nan;62474.44;4993204;28;20177;-63
2023/10/28 10:34:08;;;;;;;2.00;1.30;;;;;;;25.99;nan;62529.88;4992993;28;20169;-63
2023/10/28 10:36:40;;;;;;;2.03;1.60;;;;;;;25.80;nan;62519.72;4993048;28;20692;-64
2023/10/28 10:39:14;;;;;;;1.30;1.20;;;;;;;26.15;nan;62559.22;4992960;28;20223;-64
2023/10/28 10:41:40;;;;;;;1.42;1.33;;;;;;;26.20;nan;62577.47;4992840;28;20617;-64
2023/10/28 10:44:36;;;;;;;1.98;1.13;;;;;;;25.92;nan;62559.09;4992771;28;20180;-64
2023/10/28 10:47:02;;;;;;;3.90;2.47;;;;;;;25.83;nan;62572.91;4992996;28;20263;-62
2023/10/28 10:49:31;;;;;;;1.17;1.08;;;;;;;25.77;nan;62507.88;4992603;28;20687;-62
2023/10/28 10:52:02;;;;;;;1.15;1.05;;;;;;;25.57;nan;62477.16;4992629;28;20183;-62
2023/10/28 10:54:32;;;;;;;1.15;0.90;;;;;;;25.62;nan;62511.66;4991484;28;20180;-63
2023/10/28 10:56:58;;;;;;;1.52;1.10;;;;;;;25.81;nan;62525.53;4992208;28;20332;-64
2023/10/28 10:59:25;;;;;;;1.80;1.40;;;;;;;25.74;nan;62538.47;4992366;28;20176;-63
2023/10/28 11:01:51;;;;;;;2.20;1.70;;;;;;;25.85;nan;62535.91;4992344;28;20239;-65
2023/10/28 11:04:17;;;;;;;1.30;1.20;;;;;;;26.00;nan;62546.72;4992462;28;20183;-63
2023/10/28 11:06:43;;;;;;;2.28;1.60;;;;;;;26.01;nan;62558.34;4992545;28;20180;-63
2023/10/28 11:09:09;;;;;;;2.17;1.45;;;;;;;26.22;nan;62558.81;4991409;28;20234;-63
2023/10/28 11:11:38;;;;;;;3.42;1.15;;;;;;;26.12;nan;62595.09;5006232;28;20279;-63
2023/10/28 11:14:04;;;;;;;1.73;1.30;;;;;;;26.19;nan;62574.28;5006649;28;20644;-64
2023/10/28 11:16:31;;;;;;;2.53;1.35;;;;;;;26.41;nan;62603.56;4992805;28;20176;-64
2023/10/28 11:18:59;;;;;;;2.38;1.67;;;;;;;26.55;nan;62672.63;4992567;28;20226;-64
2023/10/28 11:21:24;;;;;;;1.95;1.52;;;;;;;26.83;nan;62675.31;4992127;28;20230;-64
2023/10/28 11:23:51;;;;;;;2.08;1.40;;;;;;;26.87;nan;62677.28;5007307;28;20188;-64
2023/10/28 11:26:21;;;;;;;1.23;1.13;;;;;;;26.78;nan;62682.69;4991028;28;20168;-64
2023/10/28 11:28:47;;;;;;;1.58;1.27;;;;;;;26.76;nan;62711.88;4990946;28;20184;-64
2023/10/28 11:31:13;;;;;;;1.58;1.23;;;;;;;26.82;nan;62645.28;4990769;28;20556;-64
2023/10/28 11:33:41;;;;;;;3.60;2.08;;;;;;;26.88;nan;62670.00;5005789;28;20271;-64
2023/10/28 11:36:08;;;;;;;2.72;1.65;;;;;;;27.01;nan;62682.84;4991149;28;20183;-64
2023/10/28 11:38:34;;;;;;;2.65;1.95;;;;;;;26.70;nan;62660.97;4992024;28;20275;-63
2023/10/28 11:41:06;;;;;;;1.85;1.60;;;;;;;26.77;nan;62631.72;4990288;28;20199;-64
2023/10/28 11:43:33;;;;;;;1.77;1.50;;;;;;;26.86;nan;62670.34;4992126;28;20240;-63
2023/10/28 11:45:59;;;;;;;2.08;1.50;;;;;;;26.30;nan;62699.59;4991557;28;20177;-64
2023/10/28 11:48:26;;;;;;;2.88;1.55;;;;;;;26.92;nan;62664.66;4991389;28;20191;-64
2023/10/28 11:50:52;;;;;;;2.28;2.08;;;;;;;26.96;nan;62648.25;4990830;28;20208;-63